Terminal Aerodrome Forecast
Issued by NWS

Home | Current Version | Previous Version | Text Only | Print | Product List | Glossary On
Versions: 1 2 3 4 5 6 7 8 9 10 11 12 13 14 15 16 17
000
FTUS41 KBOX 260531
TAFBAF
TAF
KBAF 260531Z 2606/2706 01010KT 5SM -SHRA BR OVC008
     FM261000 02006KT 4SM -SHRA BR OVC008
     FM261400 03006KT 4SM -SHRA BR OVC010
     FM261600 03006KT 4SM BR VCSH OVC010
     FM261800 03005KT P6SM OVC010
     FM270400 VRB03KT 5SM BR OVC010=

USA.gov is the U.S. government's official web portal to all federal, state and local government web resources and services.